Terminal Aerodrome Forecast
Issued by NWS Charleston, WV

Home | Current Version | Previous Version | Text Only | Print | Product List | Glossary On
Versions: 1 2 3 4 5 6 7 8 9 10 11 12 13 14 15 16 17 18 19 20 21 22 23 24 25
000
FTUS41 KRLX 301738
TAFPKB
TAF
KPKB 301738Z 3018/0118 10009KT P6SM VCTS SCT012 BKN060CB
      TEMPO 3018/3022 10009G19KT
     FM010300 VRB03KT 3SM -SHRA BKN040
     FM010600 VRB03KT 3SM BR BKN010=

USA.gov is the U.S. government's official web portal to all federal, state and local government web resources and services.